createdAt,value
2019-03-22T00:00:42.541Z,3.80
2019-03-22T00:03:15.824Z,3.70
2019-03-22T00:05:48.339Z,3.60
2019-03-22T00:08:20.857Z,3.60
2019-03-22T00:10:53.939Z,3.50
2019-03-22T00:13:26.426Z,3.50
2019-03-22T00:15:58.918Z,3.50
2019-03-22T00:18:33.992Z,3.40
2019-03-22T00:21:06.547Z,3.50
2019-03-22T00:23:39.073Z,3.40
2019-03-22T00:26:12.560Z,3.50
2019-03-22T00:28:45.445Z,3.50
2019-03-22T00:31:17.926Z,3.40
2019-03-22T00:33:50.379Z,3.40
2019-03-22T00:36:23.265Z,3.30
2019-03-22T00:38:56.349Z,3.30
2019-03-22T00:41:29.390Z,3.20
2019-03-22T00:44:03.332Z,3.20
2019-03-22T00:46:35.808Z,3.10
2019-03-22T00:49:08.815Z,3.10
2019-03-22T00:51:41.884Z,3.00
2019-03-22T00:54:14.365Z,3.00
2019-03-22T00:56:47.303Z,2.90
2019-03-22T00:59:20.324Z,2.80
2019-03-22T01:01:52.841Z,2.80
2019-03-22T01:04:25.350Z,2.70
2019-03-22T01:06:58.893Z,2.70
2019-03-22T01:09:31.382Z,2.70
2019-03-22T01:12:05.521Z,2.70
2019-03-22T01:14:38.095Z,2.80
2019-03-22T01:17:11.036Z,2.90
2019-03-22T01:19:44.015Z,3.00
2019-03-22T01:22:16.646Z,2.90
2019-03-22T01:24:49.035Z,2.90
2019-03-22T01:27:21.953Z,2.90
2019-03-22T01:29:55.708Z,2.80
2019-03-22T01:32:28.185Z,2.80
2019-03-22T01:35:00.954Z,2.70
2019-03-22T01:37:33.355Z,2.60
2019-03-22T01:40:06.751Z,2.50
2019-03-22T01:42:40.151Z,2.40
2019-03-22T01:45:13.217Z,2.40
2019-03-22T01:47:45.582Z,2.30
2019-03-22T01:50:18.412Z,2.20
2019-03-22T01:52:51.359Z,2.30
2019-03-22T01:55:23.805Z,2.20
2019-03-22T01:57:57.320Z,2.20
2019-03-22T02:00:29.647Z,2.20
2019-03-22T02:03:02.697Z,2.10
2019-03-22T02:05:35.603Z,2.10
2019-03-22T02:08:08.034Z,2.20
2019-03-22T02:10:40.891Z,2.10
2019-03-22T02:13:14.260Z,2.10
2019-03-22T02:15:46.965Z,2.10
2019-03-22T02:18:19.880Z,2.00
2019-03-22T02:20:52.359Z,2.00
2019-03-22T02:23:25.289Z,2.00
2019-03-22T02:25:58.534Z,2.00
2019-03-22T02:28:32.387Z,1.90
2019-03-22T02:31:04.752Z,1.90
2019-03-22T02:33:38.137Z,1.80
2019-03-22T02:36:10.932Z,1.90
2019-03-22T02:38:43.667Z,1.80
2019-03-22T02:41:16.203Z,1.80
2019-03-22T02:43:48.805Z,1.80
2019-03-22T02:46:21.180Z,1.80
2019-03-22T02:48:53.983Z,1.70
2019-03-22T02:51:26.840Z,1.70
2019-03-22T02:53:59.803Z,1.70
2019-03-22T02:56:32.325Z,1.70
2019-03-22T02:59:05.310Z,1.60
2019-03-22T03:01:37.822Z,1.70
2019-03-22T03:04:11.193Z,1.60
2019-03-22T03:06:43.678Z,1.60
2019-03-22T03:09:16.615Z,1.60
2019-03-22T03:11:49.084Z,1.60
2019-03-22T03:14:22.819Z,1.50
2019-03-22T03:16:55.290Z,1.60
2019-03-22T03:19:30.046Z,1.50
2019-03-22T03:22:02.466Z,1.50
2019-03-22T03:24:34.889Z,1.50
2019-03-22T03:27:07.292Z,1.40
2019-03-22T03:29:39.654Z,1.50
2019-03-22T03:32:12.623Z,1.50
2019-03-22T03:34:46.427Z,1.50
2019-03-22T03:37:18.919Z,1.50
2019-03-22T03:39:52.266Z,1.50
2019-03-22T03:42:25.294Z,1.50
2019-03-22T03:44:57.585Z,1.50
2019-03-22T03:47:30.118Z,1.40
2019-03-22T03:50:02.929Z,1.40
2019-03-22T03:52:39.401Z,1.40
2019-03-22T03:55:09.891Z,1.40
2019-03-22T03:57:42.808Z,1.40
2019-03-22T04:00:15.406Z,1.30
2019-03-22T04:02:47.758Z,1.40
2019-03-22T04:05:20.661Z,1.40
2019-03-22T04:07:54.067Z,1.30
2019-03-22T04:10:26.525Z,1.30
2019-03-22T04:12:59.469Z,1.30
2019-03-22T04:15:32.423Z,1.20
2019-03-22T04:18:05.737Z,1.20
2019-03-22T04:20:38.244Z,1.20
2019-03-22T04:23:10.683Z,1.20
2019-03-22T04:25:43.076Z,1.20
2019-03-22T04:28:18.372Z,1.10
2019-03-22T04:30:50.830Z,1.10
2019-03-22T04:33:23.698Z,1.20
2019-03-22T04:35:56.121Z,1.10
2019-03-22T04:38:28.902Z,1.20
2019-03-22T04:41:02.395Z,1.20
2019-03-22T04:43:35.355Z,1.10
2019-03-22T04:46:08.637Z,1.10
2019-03-22T04:48:41.480Z,1.20
2019-03-22T04:51:14.262Z,1.20
2019-03-22T04:53:58.070Z,1.20
2019-03-22T04:56:32.431Z,1.10
2019-03-22T04:59:18.328Z,1.10
2019-03-22T05:01:47.426Z,1.10
2019-03-22T05:04:21.595Z,1.10
2019-03-22T05:06:54.246Z,1.00
2019-03-22T05:09:30.769Z,1.00
2019-03-22T05:12:04.679Z,1.00
2019-03-22T05:14:38.938Z,1.00
2019-03-22T05:17:13.834Z,1.00
2019-03-22T05:19:51.556Z,1.00
2019-03-22T05:22:26.147Z,1.00
2019-03-22T05:25:01.715Z,1.00
2019-03-22T05:27:37.303Z,1.00
2019-03-22T05:30:13.223Z,1.10
2019-03-22T05:32:46.151Z,1.10
2019-03-22T05:35:19.038Z,1.10
2019-03-22T05:37:51.565Z,1.20
2019-03-22T05:40:24.099Z,1.20
2019-03-22T05:42:57.087Z,1.20
2019-03-22T05:45:29.873Z,1.30
2019-03-22T05:48:02.751Z,1.30
2019-03-22T05:50:35.655Z,1.40
2019-03-22T05:53:20.524Z,1.40
2019-03-22T05:55:52.988Z,1.50
2019-03-22T05:58:25.923Z,1.60
2019-03-22T06:00:58.839Z,1.70
2019-03-22T06:03:31.819Z,1.80
2019-03-22T06:06:05.141Z,1.80
2019-03-22T06:08:38.070Z,1.90
2019-03-22T06:11:10.478Z,2.00
2019-03-22T06:13:44.512Z,2.00
2019-03-22T06:16:18.086Z,2.20
2019-03-22T06:18:50.628Z,2.20
2019-03-22T06:21:23.152Z,2.30
2019-03-22T06:23:56.014Z,2.40
2019-03-22T06:26:28.515Z,2.50
2019-03-22T06:29:00.976Z,2.60
2019-03-22T06:31:34.049Z,2.70
2019-03-22T06:34:16.263Z,2.90
2019-03-22T06:36:51.108Z,3.10
2019-03-22T06:39:23.722Z,3.20
2019-03-22T06:41:56.211Z,3.30
2019-03-22T06:44:29.285Z,3.40
2019-03-22T06:47:03.233Z,3.60
2019-03-22T06:49:35.749Z,3.70
2019-03-22T06:52:08.226Z,3.90
2019-03-22T06:54:41.660Z,4.00
2019-03-22T06:57:14.315Z,4.20
2019-03-22T06:59:46.701Z,4.40
2019-03-22T07:02:19.619Z,4.60
2019-03-22T07:04:52.369Z,4.70
2019-03-22T07:07:24.863Z,5.00
2019-03-22T07:09:57.290Z,5.10
2019-03-22T07:12:31.354Z,5.40
2019-03-22T07:15:05.640Z,5.50
2019-03-22T07:17:38.172Z,5.80
2019-03-22T07:20:10.657Z,5.90
2019-03-22T07:22:43.441Z,6.20
2019-03-22T07:25:16.803Z,6.40
2019-03-22T07:27:49.253Z,6.60
2019-03-22T07:30:22.322Z,6.80
2019-03-22T07:32:54.811Z,7.00
2019-03-22T07:35:27.268Z,7.30
2019-03-22T07:38:00.905Z,7.50
2019-03-22T07:40:35.132Z,7.70
2019-03-22T07:43:08.159Z,7.90
2019-03-22T07:45:41.086Z,8.00
2019-03-22T07:48:13.467Z,8.20
2019-03-22T07:50:45.978Z,8.40
2019-03-22T07:53:20.070Z,8.50
2019-03-22T07:55:53.035Z,8.70
2019-03-22T07:58:25.499Z,8.90
2019-03-22T08:00:58.311Z,9.10
2019-03-22T08:03:31.235Z,9.20
2019-03-22T08:06:04.543Z,9.40
2019-03-22T08:08:39.442Z,9.60
2019-03-22T08:11:13.394Z,9.70
2019-03-22T08:13:48.498Z,9.90
2019-03-22T08:16:22.546Z,10.00
2019-03-22T08:18:57.084Z,10.30
2019-03-22T08:21:31.501Z,10.50
2019-03-22T08:24:05.927Z,10.80
2019-03-22T08:26:39.942Z,11.10
2019-03-22T08:29:14.371Z,11.40
2019-03-22T08:31:48.815Z,11.70
2019-03-22T08:34:22.754Z,11.90
2019-03-22T08:36:56.700Z,12.10
2019-03-22T08:39:31.108Z,12.30
2019-03-22T08:42:05.177Z,12.40
2019-03-22T08:44:43.220Z,12.60
2019-03-22T08:47:17.211Z,12.80
2019-03-22T08:49:57.337Z,13.00
2019-03-22T08:52:31.476Z,13.20
2019-03-22T08:55:06.325Z,13.50
2019-03-22T08:57:41.050Z,13.70
2019-03-22T09:00:15.574Z,13.80
2019-03-22T09:02:49.897Z,14.10
2019-03-22T09:05:24.526Z,14.30
2019-03-22T09:07:57.470Z,14.50
2019-03-22T09:10:36.023Z,14.70
2019-03-22T09:13:08.578Z,14.80
2019-03-22T09:15:42.055Z,15.00
2019-03-22T09:18:15.898Z,15.20
2019-03-22T09:20:49.279Z,15.30
2019-03-22T09:23:22.240Z,15.40
2019-03-22T09:25:55.076Z,15.30
2019-03-22T09:28:28.024Z,15.10
2019-03-22T09:31:09.897Z,15.10
2019-03-22T09:33:36.709Z,15.20
2019-03-22T09:36:10.169Z,15.40
2019-03-22T09:38:43.495Z,15.70
2019-03-22T09:41:17.032Z,15.90
2019-03-22T09:43:54.831Z,16.20
2019-03-22T09:46:28.037Z,16.30
2019-03-22T09:49:01.969Z,16.50
2019-03-22T09:51:35.477Z,16.60
2019-03-22T09:54:07.974Z,16.80
2019-03-22T09:56:46.980Z,17.10
2019-03-22T09:59:16.482Z,17.20
2019-03-22T10:01:49.393Z,17.30
2019-03-22T10:04:22.827Z,17.30
2019-03-22T10:06:55.763Z,17.20
2019-03-22T10:09:29.214Z,16.90
2019-03-22T10:12:01.888Z,17.00
2019-03-22T10:14:34.343Z,17.30
2019-03-22T10:17:06.789Z,17.50
2019-03-22T10:19:42.190Z,17.90
2019-03-22T10:22:15.406Z,18.10
2019-03-22T10:24:48.249Z,18.30
2019-03-22T10:27:21.694Z,18.40
2019-03-22T10:29:54.940Z,18.50
2019-03-22T10:32:27.806Z,18.50
2019-03-22T10:35:00.318Z,18.60
2019-03-22T10:37:33.419Z,18.60
2019-03-22T10:40:06.439Z,18.60
2019-03-22T10:42:38.963Z,18.60
2019-03-22T10:45:12.710Z,18.60
2019-03-22T10:47:45.278Z,18.60
2019-03-22T10:50:18.201Z,18.60
2019-03-22T10:52:51.077Z,18.60
2019-03-22T10:55:30.107Z,18.60
2019-03-22T10:58:00.217Z,18.60
2019-03-22T11:00:32.406Z,18.60
2019-03-22T11:03:05.935Z,18.60
2019-03-22T11:05:40.037Z,18.70
2019-03-22T11:08:13.162Z,18.80
2019-03-22T11:10:47.127Z,18.90
2019-03-22T11:13:20.207Z,18.90
2019-03-22T11:15:54.298Z,18.80
2019-03-22T11:18:36.814Z,18.70
2019-03-22T11:21:05.398Z,18.70
2019-03-22T11:23:36.652Z,18.90
2019-03-22T11:26:09.203Z,19.00
2019-03-22T11:28:43.085Z,19.00
2019-03-22T11:31:17.658Z,18.90
2019-03-22T11:33:50.338Z,18.90
2019-03-22T11:36:27.125Z,18.90
2019-03-22T11:39:00.183Z,18.90
2019-03-22T11:41:34.499Z,18.90
2019-03-22T11:44:07.350Z,18.90
2019-03-22T11:46:40.775Z,18.80
2019-03-22T11:49:13.998Z,18.90
2019-03-22T11:51:47.403Z,19.00
2019-03-22T11:54:20.326Z,19.10
2019-03-22T11:56:53.354Z,19.10
2019-03-22T11:59:28.095Z,19.30
2019-03-22T12:02:01.862Z,19.40
2019-03-22T12:04:36.301Z,19.60
2019-03-22T12:07:11.768Z,19.80
2019-03-22T12:09:44.814Z,19.80
2019-03-22T12:12:30.469Z,19.90
2019-03-22T12:15:03.530Z,20.00
2019-03-22T12:17:36.742Z,20.20
2019-03-22T12:20:10.875Z,20.30
2019-03-22T12:22:46.063Z,20.40
2019-03-22T12:25:20.261Z,20.40
2019-03-22T12:27:53.008Z,20.30
2019-03-22T12:30:27.105Z,20.20
2019-03-22T12:33:00.787Z,20.00
2019-03-22T12:35:35.049Z,20.00
2019-03-22T12:38:07.814Z,20.20
2019-03-22T12:40:41.572Z,20.00
2019-03-22T12:43:17.736Z,19.90
2019-03-22T12:45:51.223Z,19.90
2019-03-22T12:48:24.245Z,20.00
2019-03-22T12:50:57.435Z,20.00
2019-03-22T12:53:33.190Z,20.20
2019-03-22T12:56:06.810Z,20.40
2019-03-22T12:58:40.065Z,20.60
2019-03-22T13:01:16.367Z,20.50
2019-03-22T13:03:50.744Z,20.40
2019-03-22T13:06:25.435Z,20.50
2019-03-22T13:08:59.826Z,20.60
2019-03-22T13:11:33.330Z,20.80
2019-03-22T13:14:08.339Z,20.90
2019-03-22T13:16:41.470Z,21.00
2019-03-22T13:19:14.913Z,21.20
2019-03-22T13:21:47.680Z,21.20
2019-03-22T13:24:21.816Z,21.30
2019-03-22T13:26:54.423Z,21.30
2019-03-22T13:29:27.621Z,21.30
2019-03-22T13:32:00.587Z,21.30
2019-03-22T13:34:36.443Z,21.20
2019-03-22T13:37:09.700Z,21.20
2019-03-22T13:39:43.834Z,21.10
2019-03-22T13:42:17.589Z,21.20
2019-03-22T13:44:50.341Z,21.20
2019-03-22T13:47:23.611Z,21.20
2019-03-22T13:49:56.899Z,21.10
2019-03-22T13:52:30.723Z,21.00
2019-03-22T13:55:03.830Z,21.10
2019-03-22T13:57:36.739Z,21.10
2019-03-22T14:00:11.187Z,21.00
2019-03-22T14:02:44.515Z,20.80
2019-03-22T14:05:19.078Z,20.60
2019-03-22T14:07:53.287Z,20.60
2019-03-22T14:10:34.262Z,20.70
2019-03-22T14:13:08.400Z,20.80
2019-03-22T14:15:43.843Z,20.60
2019-03-22T14:18:16.311Z,20.50
2019-03-22T14:20:50.190Z,20.20
2019-03-22T14:23:24.450Z,20.10
2019-03-22T14:25:58.339Z,20.20
2019-03-22T14:28:32.226Z,20.30
2019-03-22T14:31:05.128Z,20.50
2019-03-22T14:33:38.405Z,20.60
2019-03-22T14:36:14.032Z,20.70
2019-03-22T14:38:47.066Z,20.70
2019-03-22T14:41:20.668Z,20.70
2019-03-22T14:43:53.709Z,20.80
2019-03-22T14:46:27.887Z,20.80
2019-03-22T14:49:02.094Z,20.70
2019-03-22T14:51:37.790Z,20.70
2019-03-22T14:54:12.023Z,20.80
2019-03-22T14:56:44.783Z,20.80
2019-03-22T14:59:19.427Z,20.80
2019-03-22T15:01:52.873Z,20.90
2019-03-22T15:04:27.647Z,20.80
2019-03-22T15:07:00.547Z,20.80
2019-03-22T15:09:33.262Z,20.70
2019-03-22T15:12:06.810Z,20.60
2019-03-22T15:14:50.440Z,20.60
2019-03-22T15:17:44.992Z,20.50
2019-03-22T15:20:37.392Z,20.50
2019-03-22T15:23:38.720Z,20.50
2019-03-22T15:26:25.204Z,20.40
2019-03-22T15:29:16.248Z,20.40
2019-03-22T15:32:06.697Z,20.30
2019-03-22T15:34:59.870Z,20.30
2019-03-22T15:37:51.841Z,20.30
2019-03-22T15:40:25.980Z,20.30
2019-03-22T15:42:58.867Z,20.30
2019-03-22T15:45:32.262Z,20.30
2019-03-22T15:48:06.077Z,20.20
2019-03-22T15:50:39.225Z,20.20
2019-03-22T15:53:11.814Z,20.20
2019-03-22T15:55:44.483Z,20.10
2019-03-22T15:58:18.638Z,20.00
2019-03-22T16:00:52.656Z,20.00
2019-03-22T16:03:26.572Z,19.90
2019-03-22T16:06:00.215Z,19.80
2019-03-22T16:08:32.802Z,19.80
2019-03-22T16:11:06.479Z,19.70
2019-03-22T16:13:39.246Z,19.70
2019-03-22T16:16:12.433Z,19.60
2019-03-22T16:18:45.199Z,19.60
2019-03-22T16:21:18.388Z,19.50
2019-03-22T16:23:53.903Z,19.40
2019-03-22T16:26:27.817Z,19.40
2019-03-22T16:29:00.620Z,19.40
2019-03-22T16:31:35.306Z,19.30
2019-03-22T16:34:09.264Z,19.20
2019-03-22T16:36:42.743Z,19.10
2019-03-22T16:39:15.880Z,19.00
2019-03-22T16:41:48.863Z,19.00
2019-03-22T16:44:22.616Z,18.90
2019-03-22T16:46:55.671Z,18.70
2019-03-22T16:49:29.324Z,18.60
2019-03-22T16:52:05.003Z,18.50
2019-03-22T16:54:38.428Z,18.40
2019-03-22T16:57:11.757Z,18.30
2019-03-22T16:59:45.638Z,18.20
2019-03-22T17:02:22.589Z,18.10
2019-03-22T17:04:57.527Z,18.00
2019-03-22T17:07:31.190Z,17.90
2019-03-22T17:10:03.760Z,17.70
2019-03-22T17:12:40.563Z,17.60
2019-03-22T17:15:14.736Z,17.50
2019-03-22T17:17:48.783Z,17.40
2019-03-22T17:20:22.562Z,17.20
2019-03-22T17:22:56.681Z,17.10
2019-03-22T17:25:31.321Z,16.90
2019-03-22T17:28:05.570Z,16.70
2019-03-22T17:30:39.861Z,16.60
2019-03-22T17:33:13.359Z,16.40
2019-03-22T17:35:46.302Z,16.30
2019-03-22T17:38:20.839Z,16.20
2019-03-22T17:40:53.315Z,15.90
2019-03-22T17:43:26.071Z,15.80
2019-03-22T17:46:00.101Z,15.70
2019-03-22T17:48:33.849Z,15.60
2019-03-22T17:51:07.954Z,15.50
2019-03-22T17:53:42.305Z,15.30
2019-03-22T17:56:16.359Z,15.20
2019-03-22T17:58:51.277Z,15.10
2019-03-22T18:01:24.543Z,15.00
2019-03-22T18:03:58.051Z,14.80
2019-03-22T18:06:32.803Z,14.70
2019-03-22T18:09:08.831Z,14.70
2019-03-22T18:11:42.392Z,14.50
2019-03-22T18:14:19.142Z,14.50
2019-03-22T18:16:51.768Z,14.40
2019-03-22T18:19:24.680Z,14.40
2019-03-22T18:21:58.648Z,14.40
2019-03-22T18:24:32.001Z,14.20
2019-03-22T18:27:06.140Z,14.20
2019-03-22T18:29:39.783Z,14.10
2019-03-22T18:32:13.734Z,14.10
2019-03-22T18:34:48.626Z,14.00
2019-03-22T18:37:22.228Z,14.00
2019-03-22T18:39:56.086Z,14.00
2019-03-22T18:42:29.211Z,14.00
2019-03-22T18:45:03.175Z,13.90
2019-03-22T18:47:37.171Z,13.80
2019-03-22T18:50:10.895Z,13.60
2019-03-22T18:52:46.014Z,13.50
2019-03-22T18:55:21.863Z,13.40
2019-03-22T18:57:54.125Z,13.30
2019-03-22T19:00:27.327Z,13.20
2019-03-22T19:03:00.077Z,13.00
2019-03-22T19:05:35.040Z,12.90
2019-03-22T19:08:10.068Z,12.90
2019-03-22T19:10:43.051Z,12.80
2019-03-22T19:13:17.061Z,12.60
2019-03-22T19:15:50.859Z,12.50
2019-03-22T19:18:24.753Z,12.40
2019-03-22T19:20:57.853Z,12.30
2019-03-22T19:23:30.942Z,12.20
2019-03-22T19:26:03.826Z,12.10
2019-03-22T19:28:36.763Z,12.10
2019-03-22T19:31:09.363Z,12.00
2019-03-22T19:33:42.009Z,11.90
2019-03-22T19:36:17.709Z,11.80
2019-03-22T19:38:51.573Z,11.90
2019-03-22T19:41:27.339Z,11.90
2019-03-22T19:44:02.493Z,11.90
2019-03-22T19:46:36.038Z,11.80
2019-03-22T19:49:08.629Z,11.80
2019-03-22T19:51:41.783Z,11.70
2019-03-22T19:54:15.507Z,11.60
2019-03-22T19:56:50.093Z,11.60
2019-03-22T19:59:23.191Z,11.50
2019-03-22T20:01:56.313Z,11.50
2019-03-22T20:04:29.355Z,11.40
2019-03-22T20:07:02.645Z,11.30
2019-03-22T20:09:35.763Z,11.20
2019-03-22T20:12:08.840Z,11.10
2019-03-22T20:14:42.090Z,10.90
2019-03-22T20:17:14.682Z,10.80
2019-03-22T20:19:48.286Z,10.70
2019-03-22T20:22:22.232Z,10.70
2019-03-22T20:24:54.984Z,10.50
2019-03-22T20:27:29.127Z,10.40
2019-03-22T20:30:05.143Z,10.30
2019-03-22T20:32:39.179Z,10.10
2019-03-22T20:35:16.824Z,10.00
2019-03-22T20:37:49.020Z,9.80
2019-03-22T20:40:23.807Z,9.70
2019-03-22T20:42:57.139Z,9.60
2019-03-22T20:45:30.443Z,9.60
2019-03-22T20:48:03.920Z,9.50
2019-03-22T20:50:36.971Z,9.40
2019-03-22T20:53:10.342Z,9.30
2019-03-22T20:55:44.239Z,9.20
2019-03-22T20:58:20.583Z,9.20
2019-03-22T21:00:57.073Z,9.10
2019-03-22T21:03:32.926Z,9.00
2019-03-22T21:06:07.132Z,9.00
2019-03-22T21:08:39.926Z,8.90
2019-03-22T21:11:14.012Z,8.90
2019-03-22T21:13:48.780Z,8.90
2019-03-22T21:16:21.445Z,8.90
2019-03-22T21:18:54.653Z,8.80
2019-03-22T21:21:36.150Z,8.70
2019-03-22T21:24:04.094Z,8.60
2019-03-22T21:26:37.348Z,8.50
2019-03-22T21:29:10.428Z,8.40
2019-03-22T21:31:45.298Z,8.40
2019-03-22T21:34:19.393Z,8.20
2019-03-22T21:36:52.969Z,8.10
2019-03-22T21:39:26.559Z,8.00
2019-03-22T21:41:59.148Z,7.90
2019-03-22T21:44:31.691Z,8.00
2019-03-22T21:47:04.900Z,7.90
2019-03-22T21:49:41.090Z,7.90
2019-03-22T21:52:15.375Z,7.80
2019-03-22T21:54:49.484Z,7.70
2019-03-22T21:57:22.852Z,7.70
2019-03-22T21:59:56.505Z,7.60
2019-03-22T22:02:29.684Z,7.50
2019-03-22T22:05:06.194Z,7.40
2019-03-22T22:07:39.522Z,7.30
2019-03-22T22:10:13.346Z,7.30
2019-03-22T22:12:46.317Z,7.40
2019-03-22T22:15:19.791Z,7.40
2019-03-22T22:17:52.168Z,7.50
2019-03-22T22:20:29.153Z,7.50
2019-03-22T22:23:00.260Z,7.60
2019-03-22T22:25:34.156Z,7.60
2019-03-22T22:28:07.095Z,7.50
2019-03-22T22:30:41.380Z,7.40
2019-03-22T22:33:14.838Z,7.40
2019-03-22T22:35:58.004Z,7.30
2019-03-22T22:38:22.455Z,7.20
2019-03-22T22:40:55.575Z,7.10
2019-03-22T22:43:28.590Z,6.90
2019-03-22T22:46:04.571Z,6.90
2019-03-22T22:48:37.791Z,6.80
2019-03-22T22:51:10.809Z,6.70
2019-03-22T22:53:44.732Z,6.60
2019-03-22T22:56:19.031Z,6.60
2019-03-22T22:58:53.281Z,6.50
2019-03-22T23:01:26.688Z,6.40
2019-03-22T23:03:59.639Z,6.30
2019-03-22T23:06:32.556Z,6.20
2019-03-22T23:09:07.337Z,6.20
2019-03-22T23:11:43.108Z,6.10
2019-03-22T23:14:16.144Z,6.00
2019-03-22T23:16:49.886Z,6.00
2019-03-22T23:19:22.569Z,5.90
2019-03-22T23:21:55.573Z,5.90
2019-03-22T23:24:28.149Z,5.80
2019-03-22T23:27:01.885Z,5.80
2019-03-22T23:29:35.951Z,5.80
2019-03-22T23:32:10.236Z,5.70
2019-03-22T23:34:45.467Z,5.60
2019-03-22T23:37:18.996Z,5.70
2019-03-22T23:39:51.840Z,5.70
2019-03-22T23:42:24.575Z,5.80
2019-03-22T23:44:57.415Z,5.90
2019-03-22T23:47:31.501Z,5.90
2019-03-22T23:50:04.071Z,5.90
2019-03-22T23:52:36.991Z,5.90
2019-03-22T23:55:10.856Z,6.00
2019-03-22T23:57:43.740Z,6.00
